createdAt,value
2022-11-18T00:01:40.049Z,11.80
2022-11-18T00:04:10.885Z,11.70
2022-11-18T00:06:41.934Z,10.18
2022-11-18T00:09:09.937Z,10.07
2022-11-18T00:11:57.469Z,4.13
2022-11-18T00:14:27.577Z,11.70
2022-11-18T00:17:04.480Z,10.13
2022-11-18T00:19:35.206Z,4.90
2022-11-18T00:24:31.891Z,13.68
2022-11-18T00:27:00.106Z,5.22
2022-11-18T00:29:28.805Z,16.83
2022-11-18T00:31:57.578Z,7.85
2022-11-18T00:34:26.080Z,5.22
2022-11-18T00:36:56.916Z,9.68
2022-11-18T00:39:24.588Z,8.38
2022-11-18T00:42:13.957Z,8.43
2022-11-18T00:44:42.430Z,14.98
2022-11-18T00:47:10.134Z,5.72
2022-11-18T00:49:37.869Z,10.63
2022-11-18T00:52:08.519Z,6.82
2022-11-18T00:54:36.186Z,4.80
2022-11-18T00:57:05.494Z,8.80
2022-11-18T00:59:33.719Z,7.03
2022-11-18T01:02:01.533Z,6.35
2022-11-18T01:04:29.864Z,4.93
2022-11-18T01:06:58.087Z,8.55
2022-11-18T01:09:29.304Z,8.57
2022-11-18T01:12:20.193Z,9.00
2022-11-18T01:14:48.343Z,6.20
2022-11-18T01:17:16.196Z,10.48
2022-11-18T01:19:44.064Z,10.25
2022-11-18T01:22:11.885Z,5.53
2022-11-18T01:24:39.781Z,10.15
2022-11-18T01:27:08.089Z,8.85
2022-11-18T01:29:36.876Z,9.32
2022-11-18T01:34:52.993Z,7.30
2022-11-18T01:37:20.743Z,8.32
2022-11-18T01:39:48.499Z,5.38
2022-11-18T01:42:18.319Z,8.55
2022-11-18T01:45:14.403Z,7.65
2022-11-18T01:47:50.545Z,4.55
2022-11-18T01:50:21.570Z,10.27
2022-11-18T01:52:53.580Z,3.15
2022-11-18T01:55:26.670Z,8.95
2022-11-18T01:58:02.223Z,5.90
2022-11-18T02:00:30.461Z,10.93
2022-11-18T02:02:59.563Z,8.10
2022-11-18T02:05:36.849Z,11.48
2022-11-18T02:08:07.790Z,7.15
2022-11-18T02:10:35.920Z,9.73
2022-11-18T02:13:03.821Z,6.28
2022-11-18T02:15:46.766Z,8.23
2022-11-18T02:18:25.156Z,4.85
2022-11-18T02:21:02.466Z,4.78
2022-11-18T02:23:30.805Z,7.65
2022-11-18T02:26:07.393Z,8.07
2022-11-18T02:29:02.851Z,8.25
2022-11-18T02:31:31.067Z,11.52
2022-11-18T02:34:17.439Z,11.30
2022-11-18T02:36:56.162Z,9.15
2022-11-18T02:39:39.773Z,10.60
2022-11-18T02:42:13.127Z,8.70
2022-11-18T02:44:45.777Z,3.30
2022-11-18T02:47:15.846Z,4.45
2022-11-18T02:49:51.214Z,8.82
2022-11-18T02:52:21.488Z,9.38
2022-11-18T02:54:51.063Z,6.53
2022-11-18T02:57:20.940Z,11.23
2022-11-18T02:59:49.325Z,10.83
2022-11-18T03:02:19.571Z,8.32
2022-11-18T03:04:49.803Z,4.68
2022-11-18T03:07:24.160Z,7.32
2022-11-18T03:09:53.321Z,7.05
2022-11-18T03:12:27.351Z,7.45
2022-11-18T03:15:12.463Z,8.20
2022-11-18T03:17:41.300Z,6.65
2022-11-18T03:20:31.847Z,6.35
2022-11-18T03:23:31.774Z,4.90
2022-11-18T03:26:04.560Z,5.43
2022-11-18T03:29:01.562Z,5.53
2022-11-18T03:31:53.128Z,5.53
2022-11-18T03:34:53.568Z,8.07
2022-11-18T03:37:23.690Z,7.55
2022-11-18T03:40:04.384Z,6.82
2022-11-18T03:42:40.352Z,7.60
2022-11-18T03:45:18.945Z,5.53
2022-11-18T03:48:02.105Z,10.88
2022-11-18T03:50:38.523Z,8.13
2022-11-18T03:53:07.147Z,9.55
2022-11-18T03:55:40.869Z,7.68
2022-11-18T03:58:17.296Z,7.45
2022-11-18T04:00:54.787Z,5.93
2022-11-18T04:03:26.236Z,5.57
2022-11-18T04:06:03.546Z,12.05
2022-11-18T04:08:39.499Z,6.90
2022-11-18T04:11:37.662Z,5.70
2022-11-18T04:14:09.676Z,3.58
2022-11-18T04:16:51.121Z,10.85
2022-11-18T04:19:22.844Z,7.38
2022-11-18T04:21:59.531Z,5.78
2022-11-18T04:24:31.146Z,10.25
2022-11-18T04:26:59.142Z,11.10
2022-11-18T04:29:29.917Z,5.72
2022-11-18T04:31:57.877Z,10.82
2022-11-18T04:34:28.408Z,8.90
2022-11-18T04:36:59.209Z,8.55
2022-11-18T04:39:27.534Z,6.03
2022-11-18T04:41:59.256Z,8.90
2022-11-18T04:44:37.912Z,9.25
2022-11-18T04:47:07.217Z,8.82
2022-11-18T04:49:39.049Z,5.25
2022-11-18T04:52:07.196Z,8.00
2022-11-18T04:54:34.896Z,6.70
2022-11-18T04:57:02.922Z,8.85
2022-11-18T04:59:31.283Z,14.32
2022-11-18T05:02:01.497Z,7.10
2022-11-18T05:04:32.341Z,5.55
2022-11-18T05:07:04.730Z,6.28
2022-11-18T05:09:33.286Z,5.82
2022-11-18T05:12:20.694Z,5.93
2022-11-18T05:14:51.446Z,5.93
2022-11-18T05:19:47.220Z,9.75
2022-11-18T05:22:16.180Z,7.75
2022-11-18T05:24:44.463Z,8.77
2022-11-18T05:27:13.018Z,5.13
2022-11-18T05:29:41.462Z,6.35
2022-11-18T05:32:09.834Z,6.45
2022-11-18T05:34:41.018Z,9.63
2022-11-18T05:37:12.636Z,11.73
2022-11-18T05:39:40.445Z,4.40
2022-11-18T05:42:30.320Z,8.40
2022-11-18T05:44:59.028Z,8.77
2022-11-18T05:47:47.017Z,9.18
2022-11-18T05:50:21.284Z,8.93
2022-11-18T05:52:55.558Z,10.10
2022-11-18T05:55:27.506Z,7.75
2022-11-18T05:57:58.087Z,6.18
2022-11-18T06:00:28.367Z,7.60
2022-11-18T06:02:58.304Z,1.65
2022-11-18T06:05:27.086Z,6.22
2022-11-18T06:07:57.912Z,7.72
2022-11-18T06:10:33.534Z,9.15
2022-11-18T06:13:04.927Z,6.85
2022-11-18T06:15:42.069Z,6.65
2022-11-18T06:18:21.755Z,6.55
2022-11-18T06:20:54.816Z,4.95
2022-11-18T06:23:23.327Z,8.77
2022-11-18T06:25:51.499Z,4.63
2022-11-18T06:28:20.388Z,5.55
2022-11-18T06:30:48.513Z,10.75
2022-11-18T06:33:16.264Z,5.55
2022-11-18T06:35:45.150Z,6.25
2022-11-18T06:38:13.349Z,4.60
2022-11-18T06:40:44.877Z,6.22
2022-11-18T06:43:31.934Z,4.88
2022-11-18T06:46:20.955Z,5.28
2022-11-18T06:48:50.282Z,10.00
2022-11-18T06:51:26.930Z,6.70
2022-11-18T06:53:54.839Z,6.85
2022-11-18T06:56:23.622Z,5.05
2022-11-18T06:58:57.954Z,7.10
2022-11-18T07:01:28.480Z,6.53
2022-11-18T07:03:59.215Z,7.18
2022-11-18T07:06:33.922Z,7.47
2022-11-18T07:09:06.620Z,11.02
2022-11-18T07:11:38.484Z,3.10
2022-11-18T07:14:07.360Z,4.72
2022-11-18T07:16:36.892Z,6.32
2022-11-18T07:19:14.414Z,5.60
2022-11-18T07:21:49.970Z,3.50
2022-11-18T07:24:20.348Z,6.55
2022-11-18T07:26:48.318Z,7.97
2022-11-18T07:29:16.226Z,5.30
2022-11-18T07:31:47.008Z,4.28
2022-11-18T07:34:16.666Z,5.43
2022-11-18T07:36:47.179Z,9.43
2022-11-18T07:39:15.426Z,9.27
2022-11-18T07:41:43.278Z,3.92
2022-11-18T07:44:14.914Z,6.93
2022-11-18T07:46:42.726Z,3.67
2022-11-18T07:49:12.306Z,7.75
2022-11-18T07:51:42.071Z,9.18
2022-11-18T07:54:13.403Z,6.25
2022-11-18T07:56:41.267Z,7.25
2022-11-18T07:59:09.361Z,9.15
2022-11-18T08:01:37.475Z,12.20
2022-11-18T08:04:11.732Z,12.57
2022-11-18T08:06:40.532Z,7.75
2022-11-18T08:09:09.737Z,4.88
2022-11-18T08:11:37.571Z,5.35
2022-11-18T08:14:05.314Z,15.98
2022-11-18T08:16:35.476Z,7.50
2022-11-18T08:19:03.569Z,10.80
2022-11-18T08:21:37.571Z,7.40
2022-11-18T08:24:07.658Z,6.13
2022-11-18T08:26:35.925Z,6.35
2022-11-18T08:29:03.904Z,6.53
2022-11-18T08:31:34.335Z,9.23
2022-11-18T08:34:07.584Z,7.03
2022-11-18T08:36:38.599Z,6.13
2022-11-18T08:39:09.112Z,7.18
2022-11-18T08:41:44.217Z,3.30
2022-11-18T08:44:15.402Z,4.55
2022-11-18T08:46:45.865Z,4.28
2022-11-18T08:49:14.107Z,7.15
2022-11-18T08:51:42.188Z,11.82
2022-11-18T08:54:10.054Z,4.55
2022-11-18T08:56:37.907Z,5.25
2022-11-18T08:59:06.038Z,9.65
2022-11-18T09:01:37.040Z,9.98
2022-11-18T09:04:05.198Z,13.52
2022-11-18T09:06:34.913Z,13.40
2022-11-18T09:09:06.691Z,17.67
2022-11-18T09:11:39.763Z,4.70
2022-11-18T09:16:58.801Z,8.40
2022-11-18T09:22:17.254Z,5.47
2022-11-18T09:24:45.700Z,10.13
2022-11-18T09:27:17.120Z,12.75
2022-11-18T09:29:46.506Z,6.75
2022-11-18T09:32:14.726Z,8.77
2022-11-18T09:34:45.737Z,13.85
2022-11-18T09:37:13.668Z,13.75
2022-11-18T09:39:41.403Z,11.27
2022-11-18T09:42:31.145Z,9.07
2022-11-18T09:45:28.656Z,8.87
2022-11-18T09:48:01.491Z,9.38
2022-11-18T09:53:22.109Z,5.97
2022-11-18T09:55:51.532Z,7.45
2022-11-18T09:58:29.589Z,9.32
2022-11-18T10:00:57.574Z,9.68
2022-11-18T10:03:30.830Z,11.50
2022-11-18T10:06:22.017Z,6.35
2022-11-18T10:09:14.643Z,6.97
2022-11-18T10:14:33.481Z,7.30
2022-11-18T10:17:30.364Z,8.98
2022-11-18T10:20:25.232Z,9.25
2022-11-18T10:23:14.289Z,6.28
2022-11-18T10:28:25.185Z,9.98
2022-11-18T10:30:53.306Z,5.75
2022-11-18T10:33:27.738Z,11.90
2022-11-18T10:36:26.933Z,9.63
2022-11-18T10:39:09.398Z,6.78
2022-11-18T10:41:49.673Z,7.22
2022-11-18T10:44:37.250Z,6.97
2022-11-18T10:47:31.749Z,14.02
2022-11-18T10:50:02.007Z,9.05
2022-11-18T10:52:30.598Z,8.00
2022-11-18T10:58:49.927Z,7.50
2022-11-18T11:01:24.454Z,9.85
2022-11-18T11:04:22.446Z,11.20
2022-11-18T11:06:50.685Z,11.30
2022-11-18T11:09:30.797Z,9.88
2022-11-18T11:12:20.829Z,6.00
2022-11-18T11:14:58.366Z,6.55
2022-11-18T11:17:40.879Z,8.95
2022-11-18T11:20:21.823Z,8.77
2022-11-18T11:22:49.965Z,10.07
2022-11-18T11:25:29.151Z,12.13
2022-11-18T11:28:19.987Z,6.70
2022-11-18T11:31:23.072Z,6.38
2022-11-18T11:34:23.694Z,5.55
2022-11-18T11:36:57.134Z,7.15
2022-11-18T11:39:45.198Z,7.63
2022-11-18T11:42:21.652Z,5.63
2022-11-18T11:44:55.814Z,6.50
2022-11-18T11:47:47.064Z,13.13
2022-11-18T11:51:04.708Z,7.60
2022-11-18T11:54:03.501Z,6.25
2022-11-18T11:56:54.149Z,5.45
2022-11-18T11:59:59.373Z,9.23
2022-11-18T12:03:02.450Z,7.97
2022-11-18T12:05:39.514Z,6.90
2022-11-18T12:08:14.303Z,2.97
2022-11-18T12:11:11.888Z,7.28
2022-11-18T12:14:07.510Z,2.67
2022-11-18T12:17:16.031Z,6.13
2022-11-18T12:19:43.648Z,4.82
2022-11-18T12:22:11.304Z,4.53
2022-11-18T12:24:43.103Z,8.73
2022-11-18T12:27:39.958Z,3.33
2022-11-18T12:30:19.103Z,6.20
2022-11-18T12:32:47.150Z,9.15
2022-11-18T12:35:28.722Z,6.43
2022-11-18T12:37:56.755Z,6.72
2022-11-18T12:40:44.920Z,4.03
2022-11-18T12:43:44.478Z,5.05
2022-11-18T12:46:27.158Z,5.38
2022-11-18T12:48:54.867Z,6.00
2022-11-18T12:51:24.955Z,8.20
2022-11-18T12:54:01.820Z,8.43
2022-11-18T12:56:35.839Z,5.68
2022-11-18T12:59:03.503Z,9.77
2022-11-18T13:01:35.661Z,4.20
2022-11-18T13:04:21.590Z,5.43
2022-11-18T13:06:54.131Z,4.13
2022-11-18T13:09:25.424Z,4.30
2022-11-18T13:12:04.070Z,7.38
2022-11-18T13:14:59.675Z,6.95
2022-11-18T13:17:53.124Z,6.68
2022-11-18T13:20:21.052Z,6.72
2022-11-18T13:23:17.199Z,3.22
2022-11-18T13:25:46.786Z,3.20
2022-11-18T13:28:33.568Z,1.60
2022-11-18T13:31:07.300Z,4.43
2022-11-18T13:33:41.758Z,3.70
2022-11-18T13:36:22.877Z,2.95
2022-11-18T13:39:02.612Z,5.97
2022-11-18T13:41:33.172Z,2.70
2022-11-18T13:44:35.301Z,12.27
2022-11-18T13:47:34.541Z,6.63
2022-11-18T13:50:12.708Z,5.80
2022-11-18T13:52:53.424Z,2.92
2022-11-18T13:58:01.911Z,2.75
2022-11-18T14:03:27.700Z,7.70
2022-11-18T14:05:56.708Z,5.90
2022-11-18T14:08:30.779Z,6.97
2022-11-18T14:11:00.194Z,3.53
2022-11-18T14:13:34.798Z,6.40
2022-11-18T14:16:27.056Z,6.30
2022-11-18T14:18:55.008Z,5.32
2022-11-18T14:21:34.195Z,4.57
2022-11-18T14:24:06.125Z,1.38
2022-11-18T14:26:38.695Z,3.92
2022-11-18T14:29:23.126Z,4.03
2022-11-18T14:32:15.042Z,5.70
2022-11-18T14:34:43.310Z,6.63
2022-11-18T14:37:15.441Z,3.58
2022-11-18T14:39:58.054Z,5.13
2022-11-18T14:42:26.323Z,5.40
2022-11-18T14:44:55.009Z,2.53
2022-11-18T14:47:30.354Z,5.95
2022-11-18T14:49:58.358Z,2.50
2022-11-18T14:52:26.392Z,5.82
2022-11-18T14:54:54.174Z,4.90
2022-11-18T14:57:22.437Z,5.25
2022-11-18T14:59:50.451Z,3.40
2022-11-18T15:02:18.686Z,3.20
2022-11-18T15:04:47.251Z,4.20
2022-11-18T15:07:21.781Z,4.97
2022-11-18T15:09:51.659Z,2.72
2022-11-18T15:12:20.064Z,8.13
2022-11-18T15:14:47.825Z,5.03
2022-11-18T15:17:15.532Z,3.10
2022-11-18T15:19:43.293Z,6.07
2022-11-18T15:22:16.754Z,6.78
2022-11-18T15:24:47.151Z,5.63
2022-11-18T15:27:15.075Z,4.47
2022-11-18T15:29:45.310Z,2.25
2022-11-18T15:32:12.956Z,4.25
2022-11-18T15:34:40.732Z,6.43
2022-11-18T15:37:12.628Z,5.72
2022-11-18T15:39:40.884Z,4.55
2022-11-18T15:42:08.861Z,7.30
2022-11-18T15:44:40.812Z,7.60
2022-11-18T15:47:10.839Z,5.78
2022-11-18T15:52:16.931Z,3.85
2022-11-18T15:57:12.744Z,3.17
2022-11-18T15:59:40.956Z,4.75
2022-11-18T16:02:11.400Z,4.57
2022-11-18T16:04:40.188Z,6.13
2022-11-18T16:07:11.399Z,5.32
2022-11-18T16:10:10.456Z,4.88
2022-11-18T16:12:51.131Z,4.90
2022-11-18T16:15:37.356Z,2.13
2022-11-18T16:18:06.663Z,4.03
2022-11-18T16:20:36.020Z,4.88
2022-11-18T16:23:09.869Z,6.13
2022-11-18T16:25:46.662Z,6.40
2022-11-18T16:28:15.101Z,5.25
2022-11-18T16:31:12.514Z,4.55
2022-11-18T16:33:40.486Z,4.97
2022-11-18T16:36:08.873Z,3.92
2022-11-18T16:38:37.086Z,3.22
2022-11-18T16:41:37.099Z,2.85
2022-11-18T16:44:07.997Z,3.67
2022-11-18T16:46:38.224Z,5.68
2022-11-18T16:49:06.990Z,3.42
2022-11-18T16:51:35.623Z,5.40
2022-11-18T16:54:07.178Z,5.38
2022-11-18T16:56:36.814Z,3.22
2022-11-18T16:59:17.021Z,7.38
2022-11-18T17:02:09.015Z,9.23
2022-11-18T17:04:59.785Z,7.40
2022-11-18T17:10:51.232Z,3.83
2022-11-18T17:13:19.197Z,8.57
2022-11-18T17:15:47.689Z,7.38
2022-11-18T17:18:17.495Z,8.32
2022-11-18T17:20:52.340Z,10.02
2022-11-18T17:23:23.647Z,9.02
2022-11-18T17:25:55.669Z,10.35
2022-11-18T17:28:25.257Z,3.92
2022-11-18T17:31:12.065Z,3.70
2022-11-18T17:33:40.845Z,7.13
2022-11-18T17:36:11.431Z,4.72
2022-11-18T17:38:42.541Z,4.95
2022-11-18T17:41:34.966Z,8.93
2022-11-18T17:49:46.288Z,12.43
2022-11-18T17:52:24.514Z,8.95
2022-11-18T17:55:32.707Z,4.38
2022-11-18T18:01:16.940Z,10.98
2022-11-18T18:03:56.210Z,9.57
2022-11-18T18:06:24.334Z,7.97
2022-11-18T18:08:58.653Z,9.00
2022-11-18T18:11:27.780Z,6.13
2022-11-18T18:14:13.911Z,9.38
2022-11-18T18:16:50.408Z,8.48
2022-11-18T18:19:27.558Z,6.13
2022-11-18T18:21:56.761Z,9.70
2022-11-18T18:24:55.040Z,8.95
2022-11-18T18:28:08.190Z,11.38
2022-11-18T18:30:57.669Z,7.22
2022-11-18T18:33:33.681Z,14.02
2022-11-18T18:36:04.715Z,9.57
2022-11-18T18:38:46.369Z,9.95
2022-11-18T18:41:25.935Z,10.85
2022-11-18T18:43:54.873Z,14.38
2022-11-18T18:46:36.420Z,11.32
2022-11-18T18:49:10.387Z,12.18
2022-11-18T18:51:46.635Z,13.02
2022-11-18T18:54:20.972Z,13.00
2022-11-18T18:57:04.266Z,12.60
2022-11-18T18:59:33.141Z,15.77
2022-11-18T19:02:01.597Z,11.00
2022-11-18T19:04:58.686Z,13.93
2022-11-18T19:07:31.529Z,14.70
2022-11-18T19:09:59.674Z,12.65
2022-11-18T19:13:07.892Z,13.77
2022-11-18T19:15:38.425Z,9.85
2022-11-18T19:18:39.234Z,14.75
2022-11-18T19:21:10.647Z,14.82
2022-11-18T19:23:39.455Z,14.30
2022-11-18T19:26:07.137Z,13.48
2022-11-18T19:28:35.074Z,13.15
2022-11-18T19:31:08.423Z,14.07
2022-11-18T19:33:57.253Z,16.15
2022-11-18T19:36:45.012Z,11.65
2022-11-18T19:39:13.376Z,11.13
2022-11-18T19:41:41.217Z,11.43
2022-11-18T19:44:09.088Z,17.83
2022-11-18T19:46:36.949Z,11.32
2022-11-18T19:49:04.725Z,20.00
2022-11-18T19:51:33.011Z,17.63
2022-11-18T19:54:00.739Z,14.88
2022-11-18T19:56:30.938Z,14.63
2022-11-18T19:58:59.503Z,16.35
2022-11-18T20:01:29.180Z,8.88
2022-11-18T20:04:06.952Z,9.20
2022-11-18T20:06:36.726Z,13.13
2022-11-18T20:09:11.940Z,15.37
2022-11-18T20:11:40.300Z,18.02
2022-11-18T20:14:14.140Z,15.00
2022-11-18T20:16:42.729Z,13.50
2022-11-18T20:19:17.295Z,24.42
2022-11-18T20:21:50.247Z,13.75
2022-11-18T20:24:20.257Z,18.48
2022-11-18T20:26:48.883Z,20.98
2022-11-18T20:29:19.801Z,17.55
2022-11-18T20:31:53.682Z,24.02
2022-11-18T20:34:22.479Z,21.15
2022-11-18T20:36:53.409Z,16.52
2022-11-18T20:39:22.056Z,14.20
2022-11-18T20:42:25.365Z,17.98
2022-11-18T20:44:56.429Z,14.38
2022-11-18T20:47:28.215Z,13.75
2022-11-18T20:49:57.731Z,19.30
2022-11-18T20:52:25.568Z,16.05
2022-11-18T20:54:53.633Z,13.55
2022-11-18T20:57:21.539Z,14.98
2022-11-18T20:59:49.361Z,20.20
2022-11-18T21:02:17.260Z,16.10
2022-11-18T21:07:55.701Z,16.52
2022-11-18T21:10:24.053Z,19.40
2022-11-18T21:13:12.214Z,15.25
2022-11-18T21:15:47.624Z,12.68
2022-11-18T21:18:26.316Z,14.55
2022-11-18T21:21:18.637Z,20.70
2022-11-18T21:23:54.078Z,20.27
2022-11-18T21:26:30.529Z,15.40
2022-11-18T21:29:04.332Z,19.10
2022-11-18T21:31:32.519Z,17.13
2022-11-18T21:34:00.695Z,11.38
2022-11-18T21:36:29.373Z,20.23
2022-11-18T21:38:59.436Z,22.23
2022-11-18T21:41:30.921Z,16.15
2022-11-18T21:44:06.735Z,12.27
2022-11-18T21:46:36.721Z,17.27
2022-11-18T21:49:08.099Z,11.20
2022-11-18T21:51:57.449Z,18.77
2022-11-18T21:54:38.526Z,14.25
2022-11-18T21:57:06.956Z,16.00
2022-11-18T21:59:36.334Z,15.90
2022-11-18T22:02:06.625Z,16.90
2022-11-18T22:04:52.497Z,9.30
2022-11-18T22:07:23.515Z,18.80
2022-11-18T22:09:57.758Z,13.93
2022-11-18T22:12:25.988Z,16.73
2022-11-18T22:14:53.655Z,11.18
2022-11-18T22:17:25.469Z,22.63
2022-11-18T22:19:56.418Z,17.85
2022-11-18T22:24:52.825Z,19.70
2022-11-18T22:27:20.680Z,19.63
2022-11-18T22:29:48.840Z,18.30
2022-11-18T22:32:16.300Z,16.52
2022-11-18T22:34:46.893Z,15.95
2022-11-18T22:37:18.402Z,20.77
2022-11-18T22:39:47.509Z,15.48
2022-11-18T22:42:33.658Z,20.90
2022-11-18T22:45:01.386Z,14.68
2022-11-18T22:47:29.053Z,17.33
2022-11-18T22:49:57.099Z,13.82
2022-11-18T22:52:24.754Z,11.57
2022-11-18T22:54:52.639Z,14.52
2022-11-18T22:57:20.293Z,19.20
2022-11-18T22:59:48.365Z,22.70
2022-11-18T23:02:15.972Z,12.50
2022-11-18T23:04:43.592Z,17.83
2022-11-18T23:07:11.300Z,16.30
2022-11-18T23:09:39.081Z,13.73
2022-11-18T23:12:25.847Z,13.60
2022-11-18T23:14:53.344Z,15.55
2022-11-18T23:17:21.566Z,16.17
2022-11-18T23:19:49.931Z,14.30
2022-11-18T23:22:17.395Z,12.20
2022-11-18T23:24:45.020Z,18.05
2022-11-18T23:27:12.697Z,15.02
2022-11-18T23:29:40.904Z,12.73
2022-11-18T23:32:08.443Z,15.98
2022-11-18T23:34:36.078Z,13.75
2022-11-18T23:37:03.698Z,14.95
2022-11-18T23:39:31.824Z,21.88
2022-11-18T23:41:59.523Z,13.23
2022-11-18T23:44:45.805Z,15.25
2022-11-18T23:47:13.777Z,18.27
2022-11-18T23:49:41.540Z,19.67
2022-11-18T23:52:09.620Z,12.63
2022-11-18T23:54:37.177Z,17.48
2022-11-18T23:57:05.442Z,15.70
2022-11-18T23:59:33.705Z,15.95
